Time;durP1;ratioP1;P1;durP2;ratioP2;P2;SDS_P1;SDS_P2;PMS_P1;PMS_P2;Temp;Humidity;BMP_temperature;BMP_pressure;BME280_temperature;BME280_humidity;BME280_pressure;Samples;Min_cycle;Max_cycle;Signal;HPM_P1;HPM_P2
2022/02/14 00:01:50;;;;;;;9.37;7.80;;;8.80;94.10;;;;;;5055973;28;20420;-70
2022/02/14 00:04:15;;;;;;;12.40;7.53;;;8.70;94.20;;;;;;5057964;28;20434;-69
2022/02/14 00:06:41;;;;;;;11.83;7.40;;;8.70;94.60;;;;;;5057287;28;20452;-69
2022/02/14 00:09:07;;;;;;;9.13;7.20;;;8.80;94.40;;;;;;5054559;28;20210;-68
2022/02/14 00:11:32;;;;;;;11.07;7.70;;;8.90;94.30;;;;;;5056043;28;20179;-69
2022/02/14 00:13:58;;;;;;;13.30;6.77;;;8.90;94.90;;;;;;5053333;28;20199;-70
2022/02/14 00:16:23;;;;;;;13.37;8.27;;;8.90;94.90;;;;;;5038353;28;20214;-69
2022/02/14 00:18:49;;;;;;;9.80;7.43;;;8.80;95.40;;;;;;5042169;28;20320;-69
2022/02/14 00:21:14;;;;;;;16.43;8.87;;;8.70;95.50;;;;;;5055047;28;20184;-69
2022/02/14 00:23:40;;;;;;;8.97;7.60;;;8.80;95.70;;;;;;5057905;28;20195;-69
2022/02/14 00:26:06;;;;;;;13.97;7.00;;;8.90;95.80;;;;;;5055936;28;20184;-69
2022/02/14 00:28:31;;;;;;;10.83;7.67;;;8.80;96.10;;;;;;5053446;28;20221;-69
2022/02/14 00:30:57;;;;;;;11.10;7.00;;;8.90;96.40;;;;;;5056560;28;20770;-70
2022/02/14 00:33:22;;;;;;;13.00;7.17;;;8.90;96.60;;;;;;5040181;28;20683;-69
2022/02/14 00:35:49;;;;;;;9.57;7.80;;;8.70;96.90;;;;;;5057235;28;20194;-69
2022/02/14 00:38:15;;;;;;;9.97;7.30;;;8.50;97.70;;;;;;5053917;28;20206;-69
2022/02/14 00:40:41;;;;;;;11.17;6.80;;;8.50;97.90;;;;;;5056667;28;20438;-69
2022/02/14 00:43:07;;;;;;;11.00;7.47;;;8.60;98.00;;;;;;5055157;28;20490;-69
2022/02/14 00:45:32;;;;;;;12.67;7.33;;;8.60;98.60;;;;;;5054698;28;20249;-69
2022/02/14 00:47:59;;;;;;;9.40;7.20;;;8.70;98.60;;;;;;5052832;28;20199;-69
2022/02/14 00:50:25;;;;;;;10.10;6.60;;;8.60;98.80;;;;;;5054520;28;20191;-69
2022/02/14 00:52:50;;;;;;;18.13;8.47;;;8.60;99.40;;;;;;5043262;28;20440;-69
2022/02/14 00:55:17;;;;;;;11.03;7.60;;;8.50;99.90;;;;;;5053686;28;20430;-69
2022/02/14 00:57:43;;;;;;;11.43;8.10;;;8.60;99.90;;;;;;5054510;28;20211;-69
2022/02/14 01:00:12;;;;;;;10.10;7.23;;;8.50;99.90;;;;;;5054566;28;20931;-69
2022/02/14 01:02:38;;;;;;;10.00;7.83;;;8.60;99.90;;;;;;5057007;28;20539;-68
2022/02/14 01:05:06;;;;;;;10.87;8.97;;;8.70;99.90;;;;;;5055701;28;20425;-69
2022/02/14 01:07:32;;;;;;;9.70;7.50;;;8.60;99.90;;;;;;5055436;28;20421;-68
2022/02/14 01:10:00;;;;;;;13.17;8.67;;;8.60;99.90;;;;;;5054179;28;20442;-69
2022/02/14 01:12:26;;;;;;;12.43;7.90;;;8.60;99.90;;;;;;5052711;28;20438;-69
2022/02/14 01:14:52;;;;;;;13.90;8.07;;;8.80;99.90;;;;;;5060109;28;20503;-69
2022/02/14 01:17:18;;;;;;;13.97;9.27;;;8.70;99.90;;;;;;5054015;28;21055;-69
2022/02/14 01:19:44;;;;;;;12.93;8.30;;;8.70;99.90;;;;;;5050705;28;20254;-69
2022/02/14 01:22:10;;;;;;;13.97;9.00;;;8.60;99.90;;;;;;5052893;28;20423;-69
2022/02/14 01:24:35;;;;;;;14.63;7.90;;;8.50;99.90;;;;;;5055462;28;20659;-69
2022/02/14 01:27:05;;;;;;;12.07;8.10;;;8.60;99.90;;;;;;5036628;28;20445;-69
2022/02/14 01:29:32;;;;;;;13.90;8.40;;;8.60;99.90;;;;;;5057741;28;20210;-69
2022/02/14 01:31:57;;;;;;;9.93;7.40;;;8.60;99.90;;;;;;5055313;28;20441;-69
2022/02/14 01:34:23;;;;;;;17.07;8.63;;;8.60;99.90;;;;;;5053456;28;20429;-69
2022/02/14 01:36:49;;;;;;;11.07;7.53;;;8.30;99.90;;;;;;5058979;28;20227;-69
2022/02/14 01:39:15;;;;;;;12.80;7.97;;;8.30;99.90;;;;;;5055986;28;20210;-69
2022/02/14 01:41:41;;;;;;;12.27;7.60;;;8.30;99.90;;;;;;5038047;28;20519;-69
2022/02/14 01:44:37;;;;;;;11.93;8.00;;;8.30;99.90;;;;;;5051954;28;20457;-70
2022/02/14 01:47:04;;;;;;;13.33;7.87;;;8.30;99.90;;;;;;5038872;28;20186;-69
2022/02/14 01:49:30;;;;;;;11.33;7.60;;;8.40;99.90;;;;;;5054103;28;20495;-70
2022/02/14 01:51:56;;;;;;;11.67;6.83;;;8.20;99.90;;;;;;5053606;28;20457;-69
2022/02/14 01:54:22;;;;;;;7.10;6.10;;;8.00;99.90;;;;;;5057044;28;20237;-71
2022/02/14 01:56:48;;;;;;;8.20;6.40;;;7.90;99.90;;;;;;5038636;28;20210;-71
2022/02/14 01:59:14;;;;;;;11.00;7.23;;;7.80;99.90;;;;;;5055711;28;20954;-71
2022/02/14 02:01:40;;;;;;;5.90;5.20;;;7.90;99.90;;;;;;5037091;28;20424;-71
2022/02/14 02:04:05;;;;;;;8.73;6.70;;;7.80;99.90;;;;;;5053891;28;20520;-70
2022/02/14 02:06:32;;;;;;;9.87;6.23;;;7.90;99.90;;;;;;5052842;28;20210;-71
2022/02/14 02:08:59;;;;;;;11.30;6.60;;;7.90;99.90;;;;;;5058181;28;20211;-70
2022/02/14 02:14:09;;;;;;;7.97;5.70;;;7.90;99.90;;;;;;5057908;28;20921;-69
2022/02/14 02:16:34;;;;;;;9.60;5.93;;;7.90;99.90;;;;;;5034061;28;20473;-69
2022/02/14 02:19:00;;;;;;;8.10;5.83;;;7.90;99.90;;;;;;5056669;28;20210;-69
2022/02/14 02:21:26;;;;;;;9.00;6.10;;;7.90;99.90;;;;;;5053675;28;20615;-69
2022/02/14 02:23:57;;;;;;;6.73;5.10;;;7.90;99.90;;;;;;5053656;28;20215;-69
2022/02/14 02:26:29;;;;;;;9.00;6.73;;;7.90;99.90;;;;;;5057905;28;20735;-69
2022/02/14 02:28:55;;;;;;;7.80;5.53;;;8.00;99.90;;;;;;5038030;28;20520;-69
2022/02/14 02:31:20;;;;;;;8.20;5.53;;;8.00;99.90;;;;;;5054358;28;21287;-70
2022/02/14 02:33:46;;;;;;;10.40;6.67;;;8.00;99.90;;;;;;5052898;28;20204;-70
2022/02/14 02:36:12;;;;;;;6.43;5.37;;;7.90;99.90;;;;;;5052514;28;20211;-70
2022/02/14 02:38:37;;;;;;;7.13;5.60;;;7.90;99.90;;;;;;5053740;28;20215;-68
2022/02/14 02:41:03;;;;;;;9.80;5.90;;;7.90;99.90;;;;;;5054791;28;20191;-68
2022/02/14 02:43:29;;;;;;;10.87;6.40;;;7.90;99.90;;;;;;5054271;28;20202;-69
2022/02/14 02:45:59;;;;;;;7.50;5.30;;;7.80;99.90;;;;;;5054931;28;20212;-72
2022/02/14 02:48:24;;;;;;;7.40;5.30;;;7.80;99.90;;;;;;5054296;28;21073;-70
2022/02/14 02:51:04;;;;;;;6.90;5.40;;;7.70;99.90;;;;;;5058238;28;20436;-70
2022/02/14 02:53:31;;;;;;;7.80;5.60;;;7.70;99.90;;;;;;5054676;28;20175;-69
2022/02/14 02:55:58;;;;;;;7.10;5.37;;;7.70;99.90;;;;;;5053391;28;21739;-69
2022/02/14 02:58:23;;;;;;;12.53;5.30;;;7.70;99.90;;;;;;5055529;28;20938;-70
2022/02/14 03:00:49;;;;;;;11.73;6.60;;;7.70;99.90;;;;;;5055868;28;20525;-70
2022/02/14 03:03:14;;;;;;;13.33;6.50;;;7.60;99.90;;;;;;5057233;28;20181;-70
2022/02/14 03:05:40;;;;;;;7.13;5.37;;;7.60;99.90;;;;;;5054918;28;20313;-69
2022/02/14 03:08:06;;;;;;;6.90;5.50;;;7.70;99.90;;;;;;5056140;28;20511;-70
2022/02/14 03:10:31;;;;;;;10.57;5.50;;;7.70;99.90;;;;;;5054915;28;20734;-69
2022/02/14 03:12:57;;;;;;;7.03;6.30;;;7.70;99.90;;;;;;5054501;28;20187;-72
2022/02/14 03:15:23;;;;;;;8.20;6.07;;;7.60;99.90;;;;;;5055377;28;20191;-72
2022/02/14 03:17:48;;;;;;;6.97;5.60;;;7.60;99.90;;;;;;5054969;28;20586;-71
2022/02/14 03:20:14;;;;;;;7.07;6.03;;;7.50;99.90;;;;;;5051930;28;20187;-71
2022/02/14 03:22:40;;;;;;;7.23;4.83;;;7.50;99.90;;;;;;5055527;28;20187;-70
2022/02/14 03:25:06;;;;;;;6.00;4.97;;;7.70;99.90;;;;;;5055554;28;20413;-70
2022/02/14 03:27:32;;;;;;;9.20;5.67;;;7.60;99.90;;;;;;5055102;28;20184;-70
2022/02/14 03:29:58;;;;;;;6.53;5.20;;;7.50;99.90;;;;;;5054396;28;20418;-70
2022/02/14 03:32:24;;;;;;;7.80;5.53;;;7.50;99.90;;;;;;5023241;28;21005;-71
2022/02/14 03:34:49;;;;;;;9.20;5.37;;;7.20;99.90;;;;;;5057618;28;20934;-70
2022/02/14 03:37:15;;;;;;;9.60;5.20;;;7.10;99.90;;;;;;5058188;28;20219;-70
2022/02/14 03:39:40;;;;;;;6.43;4.87;;;6.90;99.90;;;;;;5056372;28;20681;-71
2022/02/14 03:42:06;;;;;;;13.13;5.47;;;7.10;99.90;;;;;;5057157;28;20238;-70
2022/02/14 03:44:33;;;;;;;7.03;5.00;;;7.30;99.90;;;;;;5059902;28;20683;-70
2022/02/14 03:46:58;;;;;;;6.53;5.33;;;7.20;99.90;;;;;;5057844;28;20433;-71
2022/02/14 03:49:24;;;;;;;6.20;4.37;;;7.10;99.90;;;;;;5060606;28;20460;-70
2022/02/14 03:51:50;;;;;;;8.07;5.30;;;7.30;99.90;;;;;;5056652;28;20192;-70
2022/02/14 03:54:15;;;;;;;8.57;4.77;;;7.30;99.90;;;;;;5056742;28;20183;-70
2022/02/14 03:56:41;;;;;;;7.50;4.57;;;7.10;99.90;;;;;;5038481;28;20207;-71
2022/02/14 03:59:06;;;;;;;7.10;4.70;;;7.10;99.90;;;;;;5059213;28;20219;-70
2022/02/14 04:01:32;;;;;;;6.17;4.33;;;7.10;99.90;;;;;;5056513;28;20553;-71
2022/02/14 04:03:58;;;;;;;7.00;4.53;;;7.10;99.90;;;;;;5056216;28;20232;-70
2022/02/14 04:06:23;;;;;;;4.63;4.03;;;6.90;99.90;;;;;;5060069;28;20225;-70
2022/02/14 04:08:49;;;;;;;8.73;4.97;;;7.00;99.90;;;;;;5057287;28;20286;-70
2022/02/14 04:11:14;;;;;;;6.93;4.13;;;7.00;99.90;;;;;;5055149;28;20187;-70
2022/02/14 04:13:40;;;;;;;8.30;4.50;;;6.90;99.90;;;;;;5054835;28;20183;-70
2022/02/14 04:16:06;;;;;;;7.03;4.23;;;6.90;99.90;;;;;;5055363;28;20283;-70
2022/02/14 04:18:31;;;;;;;7.73;5.27;;;6.70;99.90;;;;;;5054399;28;20208;-70
2022/02/14 04:20:57;;;;;;;8.27;4.57;;;6.90;99.90;;;;;;5059799;28;20179;-70
2022/02/14 04:23:22;;;;;;;4.47;4.03;;;6.90;99.90;;;;;;5058219;28;20191;-70
2022/02/14 04:25:48;;;;;;;9.20;4.73;;;6.80;99.90;;;;;;5057399;28;20179;-69
2022/02/14 04:28:14;;;;;;;5.30;4.80;;;7.00;99.90;;;;;;5054904;28;20195;-69
2022/02/14 04:30:39;;;;;;;6.93;4.80;;;7.10;99.90;;;;;;5054880;28;20831;-69
2022/02/14 04:33:06;;;;;;;9.20;5.70;;;7.10;99.90;;;;;;5056075;28;20595;-69
2022/02/14 04:35:32;;;;;;;6.20;4.90;;;7.10;99.90;;;;;;5055999;28;20180;-69
2022/02/14 04:38:01;;;;;;;7.50;5.07;;;7.00;99.90;;;;;;5056630;28;20506;-69
2022/02/14 04:40:29;;;;;;;5.53;5.00;;;7.10;99.90;;;;;;5055814;28;20446;-70
2022/02/14 04:42:57;;;;;;;11.07;5.17;;;7.40;99.90;;;;;;5055028;28;20460;-70
2022/02/14 04:45:22;;;;;;;8.47;5.70;;;7.30;99.90;;;;;;5055065;28;20462;-69
2022/02/14 04:47:48;;;;;;;7.63;5.27;;;7.00;99.90;;;;;;5054995;28;20923;-69
2022/02/14 04:50:14;;;;;;;7.93;5.50;;;7.10;99.90;;;;;;5056360;28;20215;-70
2022/02/14 04:52:40;;;;;;;7.07;4.83;;;7.10;99.90;;;;;;5060150;28;20501;-70
2022/02/14 04:55:06;;;;;;;8.37;5.53;;;7.20;99.90;;;;;;5056168;28;20190;-70
2022/02/14 04:57:32;;;;;;;5.83;5.17;;;7.10;99.90;;;;;;5056660;28;20789;-69
2022/02/14 04:59:57;;;;;;;8.47;5.77;;;7.20;99.90;;;;;;5055505;28;20434;-70
2022/02/14 05:02:23;;;;;;;8.20;5.30;;;7.00;99.90;;;;;;5056548;28;20480;-70
2022/02/14 05:04:49;;;;;;;7.70;5.90;;;7.20;99.90;;;;;;5056304;28;20203;-72
2022/02/14 05:07:14;;;;;;;8.37;5.30;;;7.30;99.90;;;;;;5055035;28;20254;-71
2022/02/14 05:09:40;;;;;;;8.23;5.37;;;7.30;99.90;;;;;;5054650;28;20808;-72
2022/02/14 05:12:06;;;;;;;10.30;6.33;;;7.40;99.90;;;;;;5057503;28;21082;-72
2022/02/14 05:14:32;;;;;;;14.33;6.27;;;7.30;99.90;;;;;;5055411;28;20192;-72
2022/02/14 05:16:57;;;;;;;9.43;5.93;;;7.40;99.90;;;;;;5054435;28;20617;-71
2022/02/14 05:19:23;;;;;;;8.60;5.70;;;7.40;99.90;;;;;;5052959;28;20978;-71
2022/02/14 05:21:49;;;;;;;11.20;5.93;;;7.30;99.90;;;;;;5053830;28;20672;-72
2022/02/14 05:24:14;;;;;;;10.23;5.40;;;7.30;99.90;;;;;;5057530;28;20680;-69
2022/02/14 05:26:40;;;;;;;8.63;5.90;;;7.20;99.90;;;;;;5057311;28;20183;-69
2022/02/14 05:29:06;;;;;;;8.20;5.70;;;7.20;99.90;;;;;;5054179;28;20211;-71
2022/02/14 05:31:31;;;;;;;11.10;6.83;;;7.20;99.90;;;;;;5054564;28;20607;-71
2022/02/14 05:33:57;;;;;;;11.73;5.43;;;7.20;99.90;;;;;;5054274;28;20184;-71
2022/02/14 05:36:23;;;;;;;7.57;5.47;;;7.30;99.90;;;;;;5054023;28;20206;-71
2022/02/14 05:38:49;;;;;;;9.30;6.00;;;7.40;99.90;;;;;;5056597;28;20601;-71
2022/02/14 05:41:15;;;;;;;11.70;5.40;;;7.40;99.90;;;;;;5056390;28;20203;-71
2022/02/14 05:43:41;;;;;;;8.20;6.00;;;7.20;99.90;;;;;;5040513;28;20523;-71
2022/02/14 05:46:13;;;;;;;9.03;6.70;;;7.30;99.90;;;;;;5057301;28;20426;-71
2022/02/14 05:48:44;;;;;;;10.90;6.67;;;7.20;99.90;;;;;;5051676;28;20450;-71
2022/02/14 05:51:10;;;;;;;18.10;8.13;;;7.10;99.90;;;;;;5055360;28;20430;-71
2022/02/14 05:53:37;;;;;;;11.57;7.57;;;7.10;99.90;;;;;;5055442;28;20418;-70
2022/02/14 05:56:03;;;;;;;9.53;6.77;;;7.10;99.90;;;;;;5053493;28;20442;-70
2022/02/14 05:58:29;;;;;;;11.00;6.77;;;7.20;99.90;;;;;;5056034;28;20867;-69
2022/02/14 06:00:55;;;;;;;14.20;8.10;;;7.40;99.90;;;;;;5061191;28;21789;-72
2022/02/14 06:03:20;;;;;;;13.00;8.60;;;7.30;99.90;;;;;;5055054;28;20431;-71
2022/02/14 06:05:46;;;;;;;12.63;8.30;;;7.30;99.90;;;;;;5053826;28;20258;-71
2022/02/14 06:08:12;;;;;;;21.07;8.40;;;7.30;99.90;;;;;;5057400;28;20302;-69
2022/02/14 06:10:37;;;;;;;13.20;7.37;;;7.30;99.90;;;;;;5055954;28;20218;-68
2022/02/14 06:13:03;;;;;;;10.67;7.17;;;7.40;99.90;;;;;;5057330;28;20189;-69
2022/02/14 06:15:28;;;;;;;8.97;7.07;;;7.30;99.90;;;;;;5055627;28;20183;-68
2022/02/14 06:17:54;;;;;;;9.43;6.50;;;7.30;99.90;;;;;;5053206;28;20781;-69
2022/02/14 06:20:20;;;;;;;8.67;6.53;;;7.20;99.90;;;;;;5037770;28;20279;-69
2022/02/14 06:22:45;;;;;;;10.10;5.20;;;7.10;99.90;;;;;;5056084;28;20193;-70
2022/02/14 06:25:11;;;;;;;13.40;5.90;;;7.10;99.90;;;;;;5053190;28;20194;-69
2022/02/14 06:27:36;;;;;;;8.87;6.40;;;6.90;99.90;;;;;;5053258;28;20920;-70
2022/02/14 06:30:06;;;;;;;8.00;5.57;;;6.80;99.90;;;;;;5056003;28;20183;-69
2022/02/14 06:32:32;;;;;;;6.63;5.60;;;6.60;99.90;;;;;;5057979;28;20191;-69
2022/02/14 06:34:58;;;;;;;9.27;6.07;;;6.40;99.90;;;;;;5053136;28;20451;-69
2022/02/14 06:37:24;;;;;;;9.10;5.53;;;6.50;99.90;;;;;;5055385;28;20207;-69
2022/02/14 06:39:49;;;;;;;8.23;5.00;;;6.60;99.90;;;;;;5054273;28;20470;-69
2022/02/14 06:42:15;;;;;;;8.37;5.10;;;6.50;99.90;;;;;;5053083;28;20195;-69
2022/02/14 06:44:41;;;;;;;11.70;5.97;;;6.50;99.90;;;;;;5053113;28;20289;-70
2022/02/14 06:47:07;;;;;;;8.90;5.07;;;6.60;99.90;;;;;;5053848;28;20199;-71
2022/02/14 06:49:33;;;;;;;7.73;5.87;;;6.60;99.90;;;;;;5054326;28;20540;-70
2022/02/14 06:51:58;;;;;;;9.93;6.50;;;6.80;99.90;;;;;;5051010;28;20192;-70
2022/02/14 06:54:24;;;;;;;14.50;7.90;;;6.70;99.90;;;;;;5055741;28;20210;-71
2022/02/14 06:56:50;;;;;;;14.70;6.97;;;6.90;99.90;;;;;;5056065;28;20329;-71
2022/02/14 06:59:19;;;;;;;14.60;6.20;;;6.90;99.90;;;;;;5052662;28;20239;-70
2022/02/14 07:01:44;;;;;;;10.37;6.83;;;7.10;99.90;;;;;;5053367;28;20463;-71
2022/02/14 07:04:10;;;;;;;12.50;7.37;;;7.10;99.90;;;;;;5056923;28;21164;-69
2022/02/14 07:06:36;;;;;;;10.73;6.00;;;7.20;99.90;;;;;;5051796;28;20196;-70
2022/02/14 07:09:02;;;;;;;8.47;6.23;;;6.90;99.90;;;;;;5060213;28;20760;-70
2022/02/14 07:11:28;;;;;;;9.50;7.00;;;7.10;99.90;;;;;;5058064;28;20426;-70
2022/02/14 07:13:53;;;;;;;8.57;5.87;;;6.90;99.90;;;;;;5065082;22;20463;-71
2022/02/14 07:16:19;;;;;;;9.03;5.77;;;7.10;99.90;;;;;;5079404;28;20206;-71
2022/02/14 07:18:45;;;;;;;8.43;6.30;;;7.10;99.90;;;;;;5077001;28;21642;-70
2022/02/14 07:21:10;;;;;;;10.63;6.70;;;7.30;99.90;;;;;;5075402;28;20714;-70
2022/02/14 07:23:36;;;;;;;9.23;6.20;;;7.20;99.90;;;;;;5077805;28;20922;-70
2022/02/14 07:26:02;;;;;;;7.63;4.60;;;7.30;99.90;;;;;;5060025;28;20202;-71
2022/02/14 07:28:27;;;;;;;9.93;5.30;;;7.50;99.90;;;;;;5072461;28;20183;-70
2022/02/14 07:30:53;;;;;;;14.03;6.23;;;7.60;99.90;;;;;;5075546;28;20440;-67
2022/02/14 07:33:20;;;;;;;8.87;6.30;;;7.60;99.90;;;;;;5076330;28;20260;-67
2022/02/14 07:35:46;;;;;;;10.90;6.57;;;7.40;99.90;;;;;;5076609;28;20195;-67
2022/02/14 07:38:12;;;;;;;15.17;8.10;;;7.40;99.90;;;;;;5075834;28;20473;-69
2022/02/14 07:40:38;;;;;;;10.17;6.20;;;7.40;99.90;;;;;;5079341;28;20247;-71
2022/02/14 07:43:04;;;;;;;11.70;7.40;;;7.30;99.90;;;;;;5075602;28;20229;-67
2022/02/14 07:45:29;;;;;;;8.07;6.43;;;7.30;99.90;;;;;;5060911;28;20440;-68
2022/02/14 07:47:55;;;;;;;14.57;9.63;;;7.40;99.90;;;;;;5075947;28;20178;-67
2022/02/14 07:50:23;;;;;;;17.10;7.77;;;7.30;99.90;;;;;;5076977;28;20231;-67
2022/02/14 07:52:50;;;;;;;27.60;7.97;;;7.20;99.90;;;;;;5077384;28;20465;-69
2022/02/14 07:55:16;;;;;;;11.53;7.00;;;7.10;99.90;;;;;;5072931;28;20807;-68
2022/02/14 07:57:41;;;;;;;11.13;6.53;;;7.10;99.90;;;;;;5077373;28;20453;-68
2022/02/14 08:00:08;;;;;;;11.93;6.43;;;7.10;99.90;;;;;;5077922;28;20440;-71
2022/02/14 08:02:33;;;;;;;14.27;7.10;;;7.10;99.90;;;;;;5077921;28;20245;-67
2022/02/14 08:04:59;;;;;;;10.27;6.73;;;7.40;99.90;;;;;;5078108;28;20475;-79
2022/02/14 08:07:25;;;;;;;8.43;6.37;;;7.30;99.90;;;;;;5075935;28;20191;-77
2022/02/14 08:09:51;;;;;;;14.40;7.80;;;7.40;99.90;;;;;;5077429;28;20269;-79
2022/02/14 08:12:18;;;;;;;16.00;7.70;;;7.40;99.90;;;;;;5078074;28;20574;-77
2022/02/14 08:14:45;;;;;;;11.90;7.20;;;7.40;99.90;;;;;;5076972;28;20449;-75
2022/02/14 08:17:10;;;;;;;7.07;5.90;;;7.40;99.90;;;;;;5074474;28;20483;-75
2022/02/14 08:19:36;;;;;;;10.50;6.67;;;7.40;99.90;;;;;;5074138;28;20906;-73
2022/02/14 08:22:02;;;;;;;11.10;6.53;;;7.80;99.90;;;;;;5074371;28;20679;-73
2022/02/14 08:24:28;;;;;;;10.57;6.93;;;7.50;99.90;;;;;;5057584;28;20497;-76
2022/02/14 08:26:54;;;;;;;6.80;5.90;;;7.60;99.90;;;;;;5076887;28;20187;-79
2022/02/14 08:29:20;;;;;;;11.87;6.93;;;7.80;99.90;;;;;;5075300;28;20304;-78
2022/02/14 08:31:46;;;;;;;11.67;6.50;;;7.80;99.90;;;;;;5074654;28;20203;-79
2022/02/14 08:34:13;;;;;;;15.10;7.47;;;8.00;99.90;;;;;;5076673;28;20487;-74
2022/02/14 08:36:39;;;;;;;11.13;7.83;;;8.10;99.90;;;;;;5074621;28;21088;-75
2022/02/14 08:39:05;;;;;;;11.30;7.03;;;8.00;99.90;;;;;;5077002;28;20575;-77
2022/02/14 08:41:30;;;;;;;9.67;6.90;;;8.10;99.90;;;;;;5075352;28;20500;-74
2022/02/14 08:43:56;;;;;;;10.07;6.30;;;8.10;99.90;;;;;;5074287;28;20569;-75
2022/02/14 08:46:22;;;;;;;10.63;6.17;;;8.30;99.90;;;;;;5074972;28;20664;-75
2022/02/14 08:48:52;;;;;;;8.60;6.07;;;8.40;99.90;;;;;;5078919;28;20186;-75
2022/02/14 08:51:18;;;;;;;6.80;5.67;;;8.50;99.90;;;;;;5075139;28;20570;-73
2022/02/14 08:53:45;;;;;;;9.80;7.63;;;8.40;99.90;;;;;;5044483;28;20467;-75
2022/02/14 08:56:11;;;;;;;11.00;6.83;;;8.30;99.90;;;;;;5076698;28;20570;-74
2022/02/14 08:58:39;;;;;;;10.50;6.13;;;8.40;99.90;;;;;;5074665;28;20536;-78
2022/02/14 09:01:05;;;;;;;11.13;6.70;;;8.50;99.90;;;;;;5077309;28;20440;-74
2022/02/14 09:03:31;;;;;;;13.30;7.43;;;8.40;99.90;;;;;;5062441;28;20464;-78
2022/02/14 09:05:57;;;;;;;10.63;6.43;;;8.50;99.90;;;;;;5072418;28;20617;-75
2022/02/14 09:08:24;;;;;;;11.20;7.27;;;8.50;99.90;;;;;;5079910;28;20182;-77
2022/02/14 09:10:50;;;;;;;10.07;6.90;;;8.50;99.90;;;;;;5074963;28;20434;-74
2022/02/14 09:13:16;;;;;;;15.03;7.63;;;8.50;99.90;;;;;;5074958;28;20452;-74
2022/02/14 09:15:42;;;;;;;10.90;7.63;;;8.60;99.90;;;;;;5075519;28;20440;-75
2022/02/14 09:18:07;;;;;;;7.90;6.40;;;8.50;99.90;;;;;;5074401;28;20284;-66
2022/02/14 09:20:33;;;;;;;13.67;6.03;;;8.60;99.90;;;;;;5074450;28;20391;-67
2022/02/14 09:23:00;;;;;;;10.40;7.40;;;8.70;99.90;;;;;;5076227;28;20210;-67
2022/02/14 09:25:26;;;;;;;9.20;6.83;;;8.70;99.90;;;;;;5075878;28;20551;-68
2022/02/14 09:27:51;;;;;;;15.83;7.67;;;8.90;99.90;;;;;;5059325;28;20436;-67
2022/02/14 09:30:18;;;;;;;11.60;6.87;;;8.90;99.90;;;;;;5075817;28;20438;-66
2022/02/14 09:32:44;;;;;;;10.17;6.30;;;8.80;99.90;;;;;;5077590;28;20333;-67
2022/02/14 09:35:09;;;;;;;14.93;6.90;;;8.70;99.90;;;;;;5060413;28;20520;-68
2022/02/14 09:37:35;;;;;;;13.37;6.50;;;8.70;99.90;;;;;;5074801;28;20209;-67
2022/02/14 09:40:03;;;;;;;11.30;6.80;;;9.00;99.90;;;;;;5075163;28;20967;-67
2022/02/14 09:42:28;;;;;;;8.90;6.03;;;9.20;99.90;;;;;;5073731;28;20214;-67
2022/02/14 09:44:54;;;;;;;9.07;6.63;;;9.30;99.90;;;;;;5075728;28;20436;-65
2022/02/14 09:47:23;;;;;;;8.57;5.83;;;9.20;99.90;;;;;;5075665;28;20571;-65
2022/02/14 09:49:49;;;;;;;10.77;8.30;;;9.30;99.90;;;;;;5076060;28;20682;-65
2022/02/14 09:52:15;;;;;;;14.10;6.60;;;9.20;99.90;;;;;;5076433;28;20505;-65
2022/02/14 09:54:40;;;;;;;8.37;6.27;;;9.20;99.90;;;;;;5075254;28;20232;-64
2022/02/14 09:57:07;;;;;;;11.83;6.97;;;9.20;99.90;;;;;;5072092;28;20231;-65
2022/02/14 09:59:32;;;;;;;9.90;6.80;;;9.20;99.90;;;;;;5073544;28;20181;-68
2022/02/14 10:01:59;;;;;;;9.60;6.90;;;9.40;99.90;;;;;;5072535;28;20926;-68
2022/02/14 10:04:25;;;;;;;8.73;6.50;;;9.50;99.90;;;;;;5076577;28;20322;-67
2022/02/14 10:06:51;;;;;;;11.80;6.70;;;9.70;99.90;;;;;;5076575;28;20436;-69
2022/02/14 10:09:24;;;;;;;8.67;6.07;;;9.70;99.90;;;;;;5062234;28;20193;-68
2022/02/14 10:12:12;;;;;;;8.80;5.90;;;9.90;99.90;;;;;;5074159;28;20207;-68
2022/02/14 10:14:38;;;;;;;10.90;6.30;;;9.80;99.90;;;;;;5075157;28;20436;-68
2022/02/14 10:17:10;;;;;;;6.63;5.20;;;9.90;99.90;;;;;;5076092;28;20511;-68
2022/02/14 10:19:39;;;;;;;10.80;5.20;;;10.00;99.90;;;;;;5074695;28;20505;-67
2022/02/14 10:22:09;;;;;;;9.93;5.67;;;10.00;99.90;;;;;;5076183;28;20443;-69
2022/02/14 10:24:40;;;;;;;12.23;5.70;;;10.10;99.90;;;;;;5073254;28;20518;-68
2022/02/14 10:27:07;;;;;;;8.17;4.80;;;10.40;99.90;;;;;;5077025;28;20428;-68
2022/02/14 10:29:33;;;;;;;8.07;5.60;;;10.50;99.90;;;;;;5072125;28;20436;-68
2022/02/14 10:32:09;;;;;;;7.30;4.10;;;10.70;99.90;;;;;;5077443;28;20440;-68
2022/02/14 10:34:37;;;;;;;4.77;3.30;;;11.00;99.90;;;;;;5075687;28;20519;-69
2022/02/14 10:37:05;;;;;;;4.83;3.13;;;11.30;99.90;;;;;;5073071;28;20475;-67
2022/02/14 10:39:32;;;;;;;6.77;2.90;;;11.50;99.90;;;;;;5075564;28;20440;-66
2022/02/14 10:42:01;;;;;;;5.80;3.07;;;11.70;99.90;;;;;;5059325;28;20433;-67
2022/02/14 10:47:24;;;;;;;3.60;2.80;;;12.10;99.90;;;;;;5074687;28;20468;-67
2022/02/14 10:50:15;;;;;;;3.03;2.73;;;12.40;99.90;;;;;;5074991;28;20436;-68
2022/02/14 10:52:49;;;;;;;5.00;2.30;;;12.60;99.90;;;;;;5063559;28;20475;-67
2022/02/14 10:55:16;;;;;;;9.33;2.70;;;12.80;99.90;;;;;;5072433;28;20436;-67
2022/02/14 10:57:44;;;;;;;4.50;2.70;;;12.90;99.90;;;;;;5074213;28;20472;-69
2022/02/14 11:00:11;;;;;;;2.83;2.00;;;13.00;99.90;;;;;;5074652;28;21723;-69
2022/02/14 11:02:42;;;;;;;5.23;1.87;;;13.10;99.90;;;;;;5073201;28;20484;-69
2022/02/14 11:05:11;;;;;;;6.17;2.43;;;13.20;99.90;;;;;;5072855;28;20919;-70
2022/02/14 11:07:38;;;;;;;6.63;2.00;;;13.20;99.90;;;;;;5073906;28;20441;-71
2022/02/14 11:10:12;;;;;;;8.20;2.50;;;13.40;99.90;;;;;;5054475;28;20953;-68
2022/02/14 11:12:54;;;;;;;2.27;2.00;;;13.40;99.90;;;;;;5072515;28;20465;-69
2022/02/14 11:15:23;;;;;;;3.83;2.20;;;13.50;99.90;;;;;;5075556;28;20460;-69
2022/02/14 11:17:54;;;;;;;8.80;2.43;;;13.50;99.90;;;;;;5073116;28;20471;-70
2022/02/14 11:20:20;;;;;;;4.90;2.30;;;13.50;99.90;;;;;;5073370;28;20436;-71
2022/02/14 11:22:49;;;;;;;5.07;2.30;;;13.50;99.90;;;;;;5072380;28;20933;-67
2022/02/14 11:25:20;;;;;;;6.17;2.50;;;13.60;99.90;;;;;;5069610;28;20207;-67
2022/02/14 11:28:16;;;;;;;5.70;1.97;;;13.60;99.90;;;;;;5074895;28;20444;-70
2022/02/14 11:30:49;;;;;;;10.20;2.73;;;13.70;99.90;;;;;;5071361;28;20449;-67
2022/02/14 11:33:22;;;;;;;4.70;2.40;;;13.80;99.90;;;;;;5069035;28;20554;-66
2022/02/14 11:35:59;;;;;;;4.53;2.00;;;13.80;99.90;;;;;;5073753;28;20452;-66
2022/02/14 11:38:51;;;;;;;5.53;2.30;;;13.80;99.90;;;;;;5072368;28;20450;-65
2022/02/14 11:41:24;;;;;;;3.73;2.47;;;13.90;99.90;;;;;;5071748;28;20471;-66
2022/02/14 11:43:50;;;;;;;3.30;2.10;;;14.00;99.90;;;;;;5070122;28;20962;-67
2022/02/14 11:46:18;;;;;;;2.53;2.20;;;14.10;99.90;;;;;;5071843;28;20445;-66
2022/02/14 11:49:04;;;;;;;4.97;3.20;;;14.00;99.90;;;;;;5071424;28;20432;-66
2022/02/14 11:51:39;;;;;;;3.10;2.40;;;14.00;99.90;;;;;;5069279;28;20447;-66
2022/02/14 11:54:07;;;;;;;4.17;2.20;;;14.00;99.90;;;;;;5075562;28;20476;-66
2022/02/14 11:56:39;;;;;;;2.47;2.23;;;14.10;99.90;;;;;;5075558;28;20472;-68
2022/02/14 11:59:10;;;;;;;4.90;2.33;;;14.00;99.90;;;;;;5073283;28;20499;-66
2022/02/14 12:01:45;;;;;;;3.53;2.37;;;14.00;99.90;;;;;;5078317;28;20955;-66
2022/02/14 12:04:36;;;;;;;3.03;2.17;;;14.10;99.90;;;;;;5077418;28;20851;-67
2022/02/14 12:07:20;;;;;;;2.20;1.87;;;14.20;99.90;;;;;;5075442;28;20476;-66
2022/02/14 12:12:39;;;;;;;3.03;2.50;;;14.90;99.90;;;;;;5072770;28;20835;-66
2022/02/14 12:20:39;;;;;;;4.13;2.57;;;15.70;99.90;;;;;;5075126;28;20633;-66
2022/02/14 12:23:06;;;;;;;2.13;1.87;;;15.70;99.90;;;;;;5062343;28;20460;-66
2022/02/14 12:25:32;;;;;;;5.33;3.17;;;15.50;99.90;;;;;;5074167;28;20455;-67
2022/02/14 12:27:59;;;;;;;3.30;2.50;;;15.10;99.90;;;;;;5075848;28;20436;-65
2022/02/14 12:30:26;;;;;;;4.00;2.40;;;14.80;99.90;;;;;;5078618;28;20428;-65
2022/02/14 12:32:57;;;;;;;2.60;2.20;;;14.70;99.90;;;;;;5076923;28;20464;-66
2022/02/14 12:35:40;;;;;;;7.03;2.60;;;14.50;99.90;;;;;;5075898;28;20437;-69
2022/02/14 12:38:07;;;;;;;4.53;2.30;;;14.50;99.90;;;;;;5073099;28;20492;-68
2022/02/14 12:40:58;;;;;;;3.27;2.30;;;14.30;99.90;;;;;;5078680;28;20463;-68
2022/02/14 12:43:27;;;;;;;3.17;2.37;;;14.40;99.90;;;;;;5074261;28;22228;-69
2022/02/14 12:45:55;;;;;;;6.60;2.50;;;14.60;99.90;;;;;;5076285;28;20930;-69
2022/02/14 12:48:33;;;;;;;3.50;2.10;;;15.20;99.90;;;;;;5073980;28;20544;-69
2022/02/14 12:51:07;;;;;;;2.27;2.00;;;16.30;99.90;;;;;;5073561;28;20462;-65
2022/02/14 12:53:35;;;;;;;3.00;2.30;;;16.60;99.90;;;;;;5074478;28;20555;-65
2022/02/14 12:56:21;;;;;;;4.03;2.47;;;16.90;99.90;;;;;;5074026;28;20814;-67
2022/02/14 12:59:03;;;;;;;6.43;2.60;;;17.80;99.90;;;;;;5075882;28;20437;-66
2022/02/14 13:01:43;;;;;;;3.40;1.80;;;17.70;99.90;;;;;;5073066;28;20434;-68
2022/02/14 13:04:10;;;;;;;4.37;2.47;;;17.40;99.90;;;;;;5075501;28;20436;-69
2022/02/14 13:06:44;;;;;;;2.50;2.30;;;16.90;99.90;;;;;;5058576;28;20445;-68